createdAt,value
2023-05-19T00:01:38.052Z,1.83
2023-05-19T00:04:40.573Z,1.90
2023-05-19T00:07:44.030Z,2.22
2023-05-19T00:10:45.750Z,1.70
2023-05-19T00:13:49.569Z,2.28
2023-05-19T00:16:51.258Z,1.95
2023-05-19T00:19:54.752Z,2.17
2023-05-19T00:22:56.145Z,2.42
2023-05-19T00:25:57.556Z,1.67
2023-05-19T00:28:58.980Z,2.40
2023-05-19T00:32:00.539Z,2.10
2023-05-19T00:35:02.045Z,2.17
2023-05-19T00:38:03.494Z,2.03
2023-05-19T00:41:05.695Z,2.65
2023-05-19T00:44:07.610Z,1.95
2023-05-19T00:47:09.231Z,2.00
2023-05-19T00:50:10.762Z,2.08
2023-05-19T00:53:14.481Z,2.50
2023-05-19T00:56:16.802Z,3.33
2023-05-19T00:59:18.227Z,2.10
2023-05-19T01:02:19.819Z,2.25
2023-05-19T01:05:21.304Z,2.53
2023-05-19T01:08:23.590Z,2.35
2023-05-19T01:11:25.112Z,2.50
2023-05-19T01:14:27.019Z,2.28
2023-05-19T01:18:14.942Z,2.63
2023-05-19T01:21:48.540Z,2.50
2023-05-19T01:25:25.319Z,2.40
2023-05-19T01:28:35.722Z,2.13
2023-05-19T01:31:38.703Z,1.98
2023-05-19T01:34:44.046Z,2.20
2023-05-19T01:37:47.066Z,2.58
2023-05-19T01:40:50.250Z,2.28
2023-05-19T01:43:51.895Z,2.20
2023-05-19T01:46:53.568Z,2.65
2023-05-19T01:49:55.048Z,2.08
2023-05-19T01:52:56.552Z,2.22
2023-05-19T01:55:58.985Z,1.90
2023-05-19T01:59:08.751Z,3.28
2023-05-19T02:02:26.055Z,3.33
2023-05-19T02:05:38.221Z,2.30
2023-05-19T02:08:58.970Z,2.45
2023-05-19T02:12:19.189Z,2.42
2023-05-19T02:15:29.968Z,2.13
2023-05-19T02:18:35.369Z,2.38
2023-05-19T02:21:36.770Z,2.03
2023-05-19T02:24:39.379Z,3.00
2023-05-19T02:27:42.099Z,2.30
2023-05-19T02:30:43.452Z,1.98
2023-05-19T02:33:44.863Z,2.58
2023-05-19T02:36:49.688Z,2.65
2023-05-19T02:39:51.246Z,2.60
2023-05-19T02:42:52.617Z,2.40
2023-05-19T02:45:54.065Z,2.53
2023-05-19T02:48:55.565Z,2.10
2023-05-19T02:51:57.319Z,2.40
2023-05-19T02:54:58.915Z,2.13
2023-05-19T02:58:00.300Z,2.70
2023-05-19T03:01:02.511Z,2.20
2023-05-19T03:04:03.975Z,2.17
2023-05-19T03:07:06.135Z,2.47
2023-05-19T03:10:08.398Z,2.40
2023-05-19T03:13:09.778Z,1.92
2023-05-19T03:16:11.797Z,2.25
2023-05-19T03:19:13.350Z,2.47
2023-05-19T03:22:14.812Z,2.20
2023-05-19T03:25:17.061Z,2.10
2023-05-19T03:28:18.456Z,2.10
2023-05-19T03:31:19.874Z,1.90
2023-05-19T03:34:22.382Z,2.03
2023-05-19T03:37:23.844Z,1.92
2023-05-19T03:40:25.322Z,2.28
2023-05-19T03:43:26.723Z,1.50
2023-05-19T03:46:28.446Z,1.98
2023-05-19T03:49:29.942Z,2.40
2023-05-19T03:52:31.338Z,2.00
2023-05-19T03:55:32.751Z,2.35
2023-05-19T03:58:34.385Z,2.15
2023-05-19T04:01:36.523Z,2.65
2023-05-19T04:04:38.076Z,2.15
2023-05-19T04:07:39.535Z,2.00
2023-05-19T04:10:40.906Z,2.25
2023-05-19T04:13:42.318Z,2.28
2023-05-19T04:16:43.979Z,2.15
2023-05-19T04:19:45.348Z,2.08
2023-05-19T04:22:46.749Z,2.05
2023-05-19T04:25:51.158Z,2.15
2023-05-19T04:28:53.870Z,2.33
2023-05-19T04:31:56.040Z,2.22
2023-05-19T04:34:58.881Z,2.80
2023-05-19T04:38:01.655Z,1.77
2023-05-19T04:41:04.220Z,1.83
2023-05-19T04:44:07.753Z,2.50
2023-05-19T04:47:10.254Z,2.25
2023-05-19T04:50:11.750Z,2.80
2023-05-19T04:53:13.125Z,2.63
2023-05-19T04:56:15.391Z,2.50
2023-05-19T04:59:16.977Z,2.92
2023-05-19T05:02:18.491Z,2.85
2023-05-19T05:05:19.989Z,2.88
2023-05-19T05:08:25.419Z,2.63
2023-05-19T05:11:27.075Z,2.80
2023-05-19T05:14:28.749Z,2.97
2023-05-19T05:17:30.717Z,2.97
2023-05-19T05:20:32.874Z,2.75
2023-05-19T05:23:34.794Z,2.70
2023-05-19T05:26:36.536Z,2.78
2023-05-19T05:29:37.949Z,2.47
2023-05-19T05:32:39.703Z,2.58
2023-05-19T05:35:41.209Z,3.25
2023-05-19T05:38:42.596Z,2.78
2023-05-19T05:41:44.032Z,2.58
2023-05-19T05:44:45.579Z,3.33
2023-05-19T05:47:47.363Z,3.13
2023-05-19T05:50:49.981Z,3.33
2023-05-19T05:53:54.113Z,3.10
2023-05-19T05:56:55.808Z,3.65
2023-05-19T05:59:57.596Z,2.65
2023-05-19T06:02:59.356Z,2.60
2023-05-19T06:06:01.787Z,2.53
2023-05-19T06:09:03.762Z,2.83
2023-05-19T06:12:06.555Z,2.35
2023-05-19T06:15:08.227Z,2.55
2023-05-19T06:18:09.769Z,2.20
2023-05-19T06:21:13.190Z,2.85
2023-05-19T06:24:14.659Z,2.78
2023-05-19T06:27:16.049Z,2.40
2023-05-19T06:30:17.466Z,2.28
2023-05-19T06:33:18.868Z,2.28
2023-05-19T06:36:20.629Z,2.38
2023-05-19T06:39:22.030Z,2.05
2023-05-19T06:42:24.630Z,2.33
2023-05-19T06:45:26.451Z,2.67
2023-05-19T06:48:27.929Z,2.20
2023-05-19T06:51:29.374Z,2.47
2023-05-19T06:54:30.902Z,2.53
2023-05-19T06:57:32.327Z,2.85
2023-05-19T07:00:33.975Z,2.20
2023-05-19T07:03:35.658Z,2.60
2023-05-19T07:06:37.217Z,2.42
2023-05-19T07:09:38.889Z,3.03
2023-05-19T07:12:40.340Z,2.67
2023-05-19T07:15:41.821Z,2.53
2023-05-19T07:18:43.251Z,2.30
2023-05-19T07:21:44.651Z,3.15
2023-05-19T07:24:46.046Z,2.35
2023-05-19T07:27:47.526Z,2.33
2023-05-19T07:30:49.860Z,2.65
2023-05-19T07:33:54.310Z,2.65
2023-05-19T07:36:56.251Z,2.28
2023-05-19T07:39:57.733Z,2.15
2023-05-19T07:42:59.161Z,2.65
2023-05-19T07:46:00.816Z,2.28
2023-05-19T07:49:02.366Z,2.67
2023-05-19T07:52:03.946Z,2.13
2023-05-19T07:55:05.692Z,2.20
2023-05-19T07:58:07.335Z,2.53
2023-05-19T08:01:08.762Z,1.85
2023-05-19T08:04:12.712Z,1.92
2023-05-19T08:07:14.689Z,1.70
2023-05-19T08:10:16.171Z,1.80
2023-05-19T08:13:17.648Z,2.22
2023-05-19T08:16:19.166Z,1.98
2023-05-19T08:19:20.814Z,2.00
2023-05-19T08:22:22.467Z,2.20
2023-05-19T08:25:23.873Z,2.10
2023-05-19T08:28:25.433Z,2.05
2023-05-19T08:31:27.237Z,2.10
2023-05-19T08:34:28.677Z,1.90
2023-05-19T08:37:31.486Z,1.70
2023-05-19T08:44:57.571Z,2.13
2023-05-19T08:47:59.178Z,1.95
2023-05-19T08:51:10.964Z,1.85
2023-05-19T08:54:15.674Z,2.63
2023-05-19T08:57:17.373Z,1.90
2023-05-19T09:00:19.880Z,2.08
2023-05-19T09:03:24.006Z,1.77
2023-05-19T09:06:26.871Z,1.85
2023-05-19T09:09:29.461Z,1.90
2023-05-19T09:12:31.477Z,1.95
2023-05-19T09:15:36.886Z,1.92
2023-05-19T09:18:40.635Z,2.00
2023-05-19T09:21:43.223Z,1.77
2023-05-19T09:24:47.546Z,1.80
2023-05-19T09:27:49.813Z,1.80
2023-05-19T09:31:09.021Z,1.58
2023-05-19T09:34:14.284Z,1.60
2023-05-19T09:37:15.816Z,1.57
2023-05-19T09:40:17.333Z,1.50
2023-05-19T09:43:18.864Z,1.65
2023-05-19T09:46:28.212Z,1.48
2023-05-19T09:49:31.213Z,1.90
2023-05-19T09:52:36.103Z,1.58
2023-05-19T09:55:37.571Z,1.65
2023-05-19T09:58:42.233Z,1.75
2023-05-19T10:01:46.655Z,1.33
2023-05-19T10:04:48.566Z,1.70
2023-05-19T10:07:52.337Z,1.73
2023-05-19T10:10:54.147Z,1.85
2023-05-19T10:13:55.932Z,1.90
2023-05-19T10:16:58.957Z,1.67
2023-05-19T10:20:00.805Z,2.08
2023-05-19T10:23:03.207Z,2.17
2023-05-19T10:26:06.849Z,2.20
2023-05-19T10:29:08.475Z,1.85
2023-05-19T10:32:21.566Z,2.15
2023-05-19T10:35:35.852Z,1.60
2023-05-19T10:38:48.271Z,1.80
2023-05-19T10:42:15.543Z,2.08
2023-05-19T10:45:22.377Z,1.67
2023-05-19T10:48:24.033Z,1.90
2023-05-19T10:51:32.228Z,1.77
2023-05-19T10:54:43.456Z,1.60
2023-05-19T10:57:56.683Z,1.60
2023-05-19T11:01:01.707Z,1.52
2023-05-19T11:07:10.369Z,1.80
2023-05-19T11:10:12.224Z,2.33
2023-05-19T11:13:22.580Z,2.33
2023-05-19T11:16:29.530Z,1.77
2023-05-19T11:19:37.268Z,2.10
2023-05-19T11:22:39.893Z,1.90
2023-05-19T11:25:48.986Z,1.58
2023-05-19T11:28:52.023Z,1.60
2023-05-19T11:31:54.314Z,1.42
2023-05-19T11:34:56.826Z,2.30
2023-05-19T11:37:59.090Z,2.10
2023-05-19T11:41:00.965Z,1.70
2023-05-19T11:44:02.461Z,1.67
2023-05-19T11:47:08.048Z,1.70
2023-05-19T11:50:11.363Z,1.52
2023-05-19T11:53:14.085Z,1.60
2023-05-19T11:56:15.555Z,1.73
